METAR Data
IDs: Format: Raw Decoded Include TAF

Data at: 1107 UTC 18 Jan 2022

KS25 181055Z AUTO 30015KT 10SM 03/M00 A2948 RMK AO2
KS25 181035Z AUTO 29013G20KT 10SM 04/M00 A2946 RMK AO2
KS25 181015Z AUTO 28015G22KT 10SM 04/00 A2945 RMK AO2
KS25 180955Z AUTO 27014G21KT 10SM 04/00 A2945 RMK AO2
KS25 180935Z AUTO 28017G23KT 10SM 04/M00 A2944 RMK AO2
KS25 180915Z AUTO 27011G17KT 10SM 04/M00 A2943 RMK AO2
KS25 180855Z AUTO 27010G18KT 240V300 10SM 04/M00 A2943 RMK AO2
KS25 180835Z AUTO 26011KT 10SM 04/M00 A2943 RMK AO2
KS25 180815Z AUTO 25010KT 10SM 03/M01 A2942 RMK AO2
KS25 180755Z AUTO 22009KT 10SM 03/M01 A2942 RMK AO2
KS25 180735Z AUTO 22011KT 10SM 03/M00 A2942 RMK AO2
KS25 180715Z AUTO 22011KT 10SM 03/M00 A2943 RMK AO2
KS25 180655Z AUTO 23009KT 10SM 01/M01 A2943 RMK AO2
KS25 180635Z AUTO 23010G17KT 10SM 01/M01 A2943 RMK AO2
KS25 180615Z AUTO 23011KT 10SM 01/M01 A2944 RMK AO2
KS25 180555Z AUTO 23009KT 10SM 00/M01 A2945 RMK AO2
KS25 180535Z AUTO 23010KT 10SM 00/M00 A2945 RMK AO2
KS25 180515Z AUTO 24007KT 10SM 00/M00 A2945 RMK AO2
KS25 180455Z AUTO 24007KT 10SM M00/M00 A2946 RMK AO2
KS25 180435Z AUTO 24005KT 10SM 00/M00 A2946 RMK AO2
KS25 180415Z AUTO 23005KT 10SM 00/00 A2948 RMK AO2
KS25 180355Z AUTO 26003KT 10SM M00/00 A2949 RMK AO2
KS25 180335Z AUTO 24007KT 10SM M00/M00 A2950 RMK AO2
KS25 180315Z AUTO 23005KT 10SM M01/M01 A2951 RMK AO2
KS25 180255Z AUTO 25003KT 10SM M01/M01 A2953 RMK AO2
KS25 180235Z AUTO 00000KT 10SM M01/M01 A2953 RMK AO2
KS25 180215Z AUTO 00000KT 10SM M00/M00 A2954 RMK AO2
KS25 180155Z AUTO 00000KT 10SM M00/M00 A2955 RMK AO2
KS25 180135Z AUTO 21003KT 10SM M00/M00 A2956 RMK AO2
KS25 180115Z AUTO 00000KT 10SM 00/M00 A2957 RMK AO2
KS25 180055Z AUTO 00000KT 10SM 00/M00 A2957 RMK AO2
KS25 180035Z AUTO 00000KT 10SM 01/M00 A2958 RMK AO2
KS25 180015Z AUTO 00000KT 10SM 01/M00 A2958 RMK AO2
KS25 172355Z AUTO 12004KT 10SM 01/00 A2959 RMK AO2
KS25 172335Z AUTO 13005KT 10SM 01/M00 A2960 RMK AO2
KS25 172315Z AUTO 00000KT 10SM 02/M00 A2961 RMK AO2
KS25 172255Z AUTO 00000KT 10SM 03/M00 A2962 RMK AO2
KS25 172235Z AUTO 00000KT 10SM 04/M00 A2962 RMK AO2
KS25 172215Z AUTO 22004KT 10SM 04/M00 A2963 RMK AO2
KS25 172155Z AUTO 21005KT 10SM 04/M00 A2963 RMK AO2
KS25 172135Z AUTO 22006KT 10SM 04/M01 A2965 RMK AO2
KS25 172115Z AUTO 22004KT 10SM 04/M01 A2965 RMK AO2
KS25 172055Z AUTO 24006KT 10SM 04/M01 A2965 RMK AO2
KS25 172035Z AUTO 21006KT 10SM 04/M01 A2965 RMK AO2
KS25 172015Z AUTO 23005KT 10SM 04/M02 A2966 RMK AO2
KS25 171955Z AUTO 25003KT 10SM 03/M02 A2967 RMK AO2
KS25 171935Z AUTO 00000KT 10SM 03/M02 A2967 RMK AO2
KS25 171915Z AUTO 00000KT 10SM 03/M01 A2970 RMK AO2
KS25 171855Z AUTO 00000KT 10SM 03/M01 A2970 RMK AO2
KS25 171835Z AUTO 22004KT 10SM 02/M01 A2970 RMK AO2
KS25 171815Z AUTO 23005KT 10SM 02/M01 A2971 RMK AO2
KS25 171755Z AUTO 24004KT 10SM 01/M02 A2971 RMK AO2
KS25 171735Z AUTO 23006KT 10SM 01/M02 A2971 RMK AO2
KS25 171715Z AUTO 22005KT 10SM M00/M02 A2971 RMK AO2
KS25 171655Z AUTO 23005KT 10SM M01/M02 A2971 RMK AO2
KS25 171635Z AUTO 24005KT 10SM M03/M03 A2972 RMK AO2
KS25 171615Z AUTO 23007KT 10SM M03/M03 A2972 RMK AO2
KS25 171555Z AUTO 20003KT 10SM M05/M05 A2971 RMK AO2
KS25 171535Z AUTO 22004KT 10SM M06/M06 A2972 RMK AO2
KS25 171515Z AUTO 23005KT 10SM M06/M06 A2971 RMK AO2
KS25 171455Z AUTO 25005KT 10SM M06/M06 A2971 RMK AO2
KS25 171435Z AUTO 00000KT 10SM M04/M04 A2970 RMK AO2
KS25 171415Z AUTO 00000KT 10SM M05/M05 A2970 RMK AO2
KS25 171355Z AUTO 00000KT 10SM M04/M04 A2970 RMK AO2
KS25 171335Z AUTO 22004KT 10SM M05/M05 A2971 RMK AO2
KS25 171315Z AUTO 26003KT 10SM M03/M03 A2970 RMK AO2
KS25 171255Z AUTO 00000KT 10SM M03/M02 A2971 RMK AO2
KS25 171235Z AUTO 14004KT 10SM M01/M01 A2970 RMK AO2
KS25 171215Z AUTO 00000KT 10SM M02/M02 A2971 RMK AO2
KS25 171155Z AUTO 00000KT 10SM M03/M03 A2972 RMK AO2
KS25 171135Z AUTO 00000KT 10SM M02/M02 A2972 RMK AO2
KS25 171115Z AUTO 00000KT 10SM M03/M02 A2972 RMK AO2
KS25 171055Z AUTO 00000KT 10SM M03/M02 A2972 RMK AO2
KS25 171035Z AUTO 00000KT 10SM M02/M02 A2972 RMK AO2
KS25 171015Z AUTO 11006KT 10SM M02/M02 A2972 RMK AO2
KS25 170955Z AUTO 14005KT 10SM M02/M02 A2974 RMK AO2
KS25 170935Z AUTO 12007KT 10SM M02/M02 A2975 RMK AO2
KS25 170915Z AUTO 14005KT 10SM M02/M02 A2975 RMK AO2
KS25 170855Z AUTO 13004KT 10SM M02/M02 A2976 RMK AO2
KS25 170835Z AUTO 13005KT 10SM M03/M02 A2976 RMK AO2
KS25 170815Z AUTO 14005KT 10SM M03/M03 A2978 RMK AO2
KS25 170755Z AUTO 11007KT 10SM M03/M03 A2979 RMK AO2
KS25 170735Z AUTO 12007KT 10SM M04/M03 A2980 RMK AO2
KS25 170715Z AUTO 12006KT 10SM M04/M04 A2981 RMK AO2
KS25 170655Z AUTO 00000KT 10SM M05/M05 A2982 RMK AO2
KS25 170635Z AUTO 00000KT 10SM M04/M04 A2983 RMK AO2
KS25 170615Z AUTO 00000KT 10SM M05/M05 A2984 RMK AO2
KS25 170555Z AUTO 00000KT 10SM M06/M06 A2986 RMK AO2
KS25 170535Z AUTO 00000KT 10SM M06/M06 A2986 RMK AO2
KS25 170515Z AUTO 00000KT 10SM M05/M05 A2987 RMK AO2
KS25 170455Z AUTO 20003KT 10SM M05/M05 A2987 RMK AO2
KS25 170435Z AUTO 00000KT 10SM M05/M05 A2988 RMK AO2
KS25 170415Z AUTO 00000KT 10SM M05/M05 A2989 RMK AO2
KS25 170355Z AUTO 23003KT 10SM M06/M06 A2989 RMK AO2
KS25 170335Z AUTO 22003KT 10SM M06/M05 A2990 RMK AO2
KS25 170315Z AUTO 23006KT 10SM M05/M05 A2990 RMK AO2
KS25 170255Z AUTO 23007KT 10SM M04/M05 A2991 RMK AO2
KS25 170235Z AUTO 23008KT 10SM M03/M04 A2993 RMK AO2
KS25 170215Z AUTO 22005KT 10SM M04/M04 A2993 RMK AO2
KS25 170155Z AUTO 26008KT 10SM M02/M03 A2994 RMK AO2
KS25 170135Z AUTO 27008KT 10SM M01/M03 A2994 RMK AO2
KS25 170115Z AUTO 25008KT 10SM M02/M03 A2995 RMK AO2
KS25 170055Z AUTO 26006G12KT 10SM M01/M03 A2995 RMK AO2
KS25 170035Z AUTO 27008KT 10SM M01/M03 A2994 RMK AO2
KS25 170015Z AUTO 27007KT 10SM M00/M03 A2996 RMK AO2
KS25 162355Z AUTO 28010KT 10SM 00/M03 A2996 RMK AO2
KS25 162335Z AUTO 27009KT 10SM 00/M03 A2997 RMK AO2
KS25 162315Z AUTO 27009KT 10SM 01/M03 A2997 RMK AO2